Time;durP1;ratioP1;P1;durP2;ratioP2;P2;SDS_P1;SDS_P2;PMS_P1;PMS_P2;Temp;Humidity;BMP_temperature;BMP_pressure;BME280_temperature;BME280_humidity;BME280_pressure;Samples;Min_cycle;Max_cycle;Signal;HPM_P1;HPM_P2
2023/12/15 00:02:05;;;;;;;15.17;8.73;;;;;;;-145.69;67.72;52398.84;4936358;29;20203;-79
2023/12/15 00:04:32;;;;;;;17.73;9.83;;;;;;;-145.69;68.17;52386.97;4936465;29;20681;-79
2023/12/15 00:07:00;;;;;;;16.93;9.07;;;;;;;-145.69;68.37;52377.06;4936294;29;20282;-79
2023/12/15 00:09:26;;;;;;;16.57;8.73;;;;;;;-145.69;67.90;52406.75;4935964;29;20241;-80
2023/12/15 00:11:53;;;;;;;18.27;9.60;;;;;;;-145.69;67.97;52371.13;4936246;29;20203;-80
2023/12/15 00:14:19;;;;;;;16.17;9.00;;;;;;;-145.69;68.21;52349.31;4936311;29;20207;-80
2023/12/15 00:16:46;;;;;;;16.43;9.17;;;;;;;-145.69;68.40;52400.81;4936088;29;20667;-80
2023/12/15 00:19:13;;;;;;;20.27;9.17;;;;;;;-145.69;67.84;52371.13;4935829;29;20231;-80
2023/12/15 00:21:39;;;;;;;17.10;9.70;;;;;;;-145.69;68.13;52400.81;4935875;29;20214;-79
2023/12/15 00:24:08;;;;;;;17.57;9.70;;;;;;;-145.69;68.15;52365.16;4936259;29;20563;-79
2023/12/15 00:26:35;;;;;;;19.27;9.37;;;;;;;-145.69;67.51;52383.00;4932110;29;20200;-79
2023/12/15 00:29:03;;;;;;;17.73;8.73;;;;;;;-145.69;67.97;52381.00;4935838;29;20215;-79
2023/12/15 00:31:29;;;;;;;16.77;8.20;;;;;;;-145.69;67.58;52333.47;4935796;29;20558;-79
2023/12/15 00:33:56;;;;;;;16.07;8.73;;;;;;;-145.69;67.53;52390.91;4935698;29;20214;-80
2023/12/15 00:36:23;;;;;;;16.43;8.77;;;;;;;-145.69;66.90;52379.03;4935561;29;20211;-80
2023/12/15 00:38:49;;;;;;;15.87;7.70;;;;;;;-145.69;67.20;52383.00;4935964;29;20243;-79
2023/12/15 00:41:17;;;;;;;16.27;8.40;;;;;;;-145.69;66.82;52384.97;4936029;29;20234;-79
2023/12/15 00:43:43;;;;;;;15.40;9.37;;;;;;;-145.69;67.92;52388.94;4934972;29;20856;-79
2023/12/15 00:46:09;;;;;;;17.23;7.90;;;;;;;-145.69;66.85;52365.16;4935469;29;20195;-79
2023/12/15 00:48:36;;;;;;;14.80;7.77;;;;;;;-145.69;66.65;52369.13;4935363;29;20294;-79
2023/12/15 00:51:02;;;;;;;12.93;7.10;;;;;;;-145.69;66.87;52369.13;4935669;29;20694;-79
2023/12/15 00:53:32;;;;;;;11.87;6.30;;;;;;;-145.69;66.28;52394.88;4935548;29;20203;-79
2023/12/15 00:55:58;;;;;;;10.03;6.03;;;;;;;-145.69;66.24;52361.22;4935510;29;20234;-79
2023/12/15 00:58:26;;;;;;;14.30;6.63;;;;;;;-145.69;65.92;52329.53;4935523;29;20203;-79
2023/12/15 01:00:53;;;;;;;11.83;6.77;;;;;;;-145.69;66.09;52392.91;4935401;29;20691;-79
2023/12/15 01:03:19;;;;;;;9.50;5.67;;;;;;;-145.69;65.96;52383.00;4935139;29;20214;-80
2023/12/15 01:05:46;;;;;;;11.30;6.27;;;;;;;-145.69;66.06;52373.09;4935083;29;20540;-79
2023/12/15 01:08:13;;;;;;;11.00;6.53;;;;;;;-145.69;66.37;52371.13;4934182;29;20243;-79
2023/12/15 01:10:39;;;;;;;13.27;7.00;;;;;;;-145.69;66.26;52365.16;4934394;29;20610;-79
2023/12/15 01:13:06;;;;;;;16.13;7.37;;;;;;;-145.69;66.03;52377.06;4935002;29;20211;-79
2023/12/15 01:15:34;;;;;;;11.93;6.63;;;;;;;-145.69;65.96;52398.84;4935083;29;20208;-79
2023/12/15 01:18:00;;;;;;;14.57;7.07;;;;;;;-145.69;66.07;52388.94;4935374;29;20199;-80
2023/12/15 01:20:27;;;;;;;11.70;6.53;;;;;;;-145.69;66.31;52369.13;4934566;29;20231;-79
2023/12/15 01:22:54;;;;;;;11.53;6.90;;;;;;;-145.69;65.68;52420.63;4935592;29;20294;-80
2023/12/15 01:25:20;;;;;;;13.43;6.60;;;;;;;-145.69;65.67;52361.22;4934917;29;20563;-79
2023/12/15 01:27:47;;;;;;;13.17;7.67;;;;;;;-145.69;65.78;52361.22;4934860;29;20667;-79
2023/12/15 01:30:13;;;;;;;15.57;7.63;;;;;;;-145.69;65.06;52353.28;4935282;29;20250;-79
2023/12/15 01:32:41;;;;;;;13.90;6.93;;;;;;;-145.69;66.06;52390.91;4934607;29;20234;-79
2023/12/15 01:35:09;;;;;;;16.17;7.57;;;;;;;-145.69;66.26;52392.91;4934906;29;20219;-79
2023/12/15 01:37:35;;;;;;;15.33;8.13;;;;;;;-145.69;66.17;52381.00;4934825;29;20196;-79
2023/12/15 01:40:02;;;;;;;13.63;7.20;;;;;;;-145.69;65.95;52329.53;4935003;29;20235;-79
2023/12/15 01:42:29;;;;;;;14.23;6.80;;;;;;;-145.69;65.73;52353.28;4931833;29;20200;-79
2023/12/15 01:44:56;;;;;;;16.93;7.77;;;;;;;-145.69;65.46;52396.84;4935017;29;20210;-79
2023/12/15 01:47:24;;;;;;;13.60;7.57;;;;;;;-145.69;65.60;52365.16;4939079;29;20207;-79
2023/12/15 01:49:52;;;;;;;14.27;7.10;;;;;;;-145.69;64.87;52384.97;4938932;29;20235;-79
2023/12/15 01:52:19;;;;;;;12.03;6.83;;;;;;;-145.69;65.49;52373.09;4938781;29;20726;-79
2023/12/15 01:54:45;;;;;;;12.57;6.40;;;;;;;-145.69;65.63;52377.06;4938521;29;20677;-79
2023/12/15 01:57:13;;;;;;;12.47;6.90;;;;;;;-145.69;65.36;52363.19;4938020;29;20203;-81
2023/12/15 01:59:43;;;;;;;12.23;6.23;;;;;;;-145.69;65.08;52375.06;4938607;29;20230;-79
2023/12/15 02:02:10;;;;;;;11.10;6.40;;;;;;;-145.69;65.99;52343.38;4938293;29;20213;-80
2023/12/15 02:04:37;;;;;;;14.07;7.17;;;;;;;-145.69;65.60;52365.16;4938306;29;20199;-80
2023/12/15 02:07:05;;;;;;;14.77;7.27;;;;;;;-145.69;65.85;52377.06;4938675;29;20298;-80
2023/12/15 02:09:31;;;;;;;13.57;7.43;;;;;;;-145.69;65.46;52381.00;4938410;29;20308;-80
2023/12/15 02:11:58;;;;;;;12.13;6.53;;;;;;;-145.69;65.24;52359.22;4938516;29;20203;-80
2023/12/15 02:14:24;;;;;;;13.18;8.48;;;;;;;-145.69;65.71;52359.22;4937524;29;20449;-80
2023/12/15 02:16:51;;;;;;;13.37;7.60;;;;;;;-145.69;65.76;52384.97;4938488;29;20214;-80
2023/12/15 02:19:17;;;;;;;10.53;6.03;;;;;;;-145.69;65.11;52424.59;4938558;29;20548;-80
2023/12/15 02:21:44;;;;;;;13.97;6.70;;;;;;;-145.69;65.62;52367.16;4938227;29;20203;-80
2023/12/15 02:24:11;;;;;;;10.70;6.60;;;;;;;-145.69;65.65;52379.03;4938033;29;20203;-80
2023/12/15 02:26:38;;;;;;;10.87;6.33;;;;;;;-145.69;65.34;52379.03;4937693;29;20204;-81
2023/12/15 02:29:04;;;;;;;15.70;6.00;;;;;;;-145.69;65.29;52373.09;4938470;29;20207;-81
2023/12/15 02:31:31;;;;;;;11.17;5.73;;;;;;;-145.69;65.49;52373.09;4938092;29;20215;-80
2023/12/15 02:33:57;;;;;;;7.60;4.77;;;;;;;-145.69;65.31;52384.97;4937829;29;20207;-79
2023/12/15 02:36:24;;;;;;;11.97;5.53;;;;;;;-145.69;64.33;52404.78;4937777;29;20571;-79
2023/12/15 02:38:51;;;;;;;10.30;5.13;;;;;;;-145.69;65.16;52384.97;4938234;29;20536;-80
2023/12/15 02:41:21;;;;;;;8.53;4.83;;;;;;;-145.69;65.36;52373.09;4937644;29;20733;-79
2023/12/15 02:43:47;;;;;;;8.17;4.97;;;;;;;-145.69;65.39;52379.03;4937832;29;20741;-80
2023/12/15 02:46:14;;;;;;;12.17;5.30;;;;;;;-145.69;65.41;52361.22;4937884;29;20208;-79
2023/12/15 02:48:40;;;;;;;8.67;4.70;;;;;;;-145.69;64.06;52379.03;4937994;29;20207;-80
2023/12/15 02:51:07;;;;;;;8.33;4.70;;;;;;;-145.69;64.85;52410.72;4937387;29;20215;-79
2023/12/15 02:53:34;;;;;;;9.07;5.13;;;;;;;-145.69;65.58;52361.22;4937292;29;20234;-78
2023/12/15 02:56:01;;;;;;;9.70;4.40;;;;;;;-145.69;66.38;52388.94;4937648;29;20686;-79
2023/12/15 02:58:29;;;;;;;6.60;4.10;;;;;;;-145.69;66.79;52357.25;4935729;29;20667;-79
2023/12/15 03:00:55;;;;;;;7.07;4.60;;;;;;;-145.69;66.36;52381.00;4937652;29;20602;-80
2023/12/15 03:03:21;;;;;;;9.70;5.57;;;;;;;-145.69;66.37;52384.97;4937272;29;20211;-78
2023/12/15 03:05:48;;;;;;;10.80;5.97;;;;;;;-145.69;66.20;52412.69;4937552;29;20226;-79
2023/12/15 03:08:14;;;;;;;6.47;4.33;;;;;;;-145.69;66.06;52383.00;4936966;29;20730;-79
2023/12/15 03:10:41;;;;;;;10.07;4.20;;;;;;;-145.69;65.80;52379.03;4937375;29;20204;-79
2023/12/15 03:13:07;;;;;;;7.27;4.50;;;;;;;-145.69;66.12;52351.31;4937281;29;20211;-79
2023/12/15 03:15:35;;;;;;;6.30;4.70;;;;;;;-145.69;66.08;52384.97;4937236;29;20200;-79
2023/12/15 03:18:01;;;;;;;9.67;4.83;;;;;;;-145.69;66.31;52365.16;4936434;29;20263;-79
2023/12/15 03:20:28;;;;;;;7.30;4.03;;;;;;;-145.69;65.43;52379.03;4936985;29;20238;-79
2023/12/15 03:22:59;;;;;;;9.83;4.00;;;;;;;-145.69;65.09;52384.97;4936378;29;20203;-79
2023/12/15 03:25:25;;;;;;;5.33;4.00;;;;;;;-145.69;65.26;52383.00;4937356;29;20208;-80
2023/12/15 03:27:51;;;;;;;7.20;4.20;;;;;;;-145.69;65.22;52379.03;4937091;29;20207;-79
2023/12/15 03:30:18;;;;;;;7.80;4.30;;;;;;;-145.69;64.93;52375.06;4920136;29;20294;-79
2023/12/15 03:32:46;;;;;;;5.27;3.60;;;;;;;-145.69;64.37;52384.97;4936807;29;20210;-79
2023/12/15 03:35:12;;;;;;;7.60;4.33;;;;;;;-145.69;64.57;52384.97;4936944;29;20210;-78
2023/12/15 03:37:39;;;;;;;5.57;3.63;;;;;;;-145.69;65.11;52365.16;4936573;29;20215;-78
2023/12/15 03:40:06;;;;;;;8.00;4.80;;;;;;;-145.69;63.72;52361.22;4925742;29;20239;-80
2023/12/15 03:42:33;;;;;;;8.23;4.07;;;;;;;-145.69;64.83;52416.66;4918048;29;20283;-79
2023/12/15 03:44:59;;;;;;;6.20;4.13;;;;;;;-145.69;65.27;52369.13;4917731;29;20571;-79
2023/12/15 03:47:26;;;;;;;6.17;3.93;;;;;;;-145.69;65.24;52341.41;4931469;29;20255;-79
2023/12/15 03:49:54;;;;;;;7.73;4.73;;;;;;;-145.69;65.36;52351.31;4936391;29;20207;-79
2023/12/15 03:52:20;;;;;;;7.43;4.13;;;;;;;-145.69;64.64;52388.94;4936598;29;20203;-79
2023/12/15 03:54:46;;;;;;;11.17;4.10;;;;;;;-145.69;65.49;52367.16;4936569;29;20215;-80
2023/12/15 03:57:13;;;;;;;6.40;3.77;;;;;;;-145.69;65.46;52384.97;4936778;29;20211;-79
2023/12/15 03:59:39;;;;;;;7.77;4.40;;;;;;;-145.69;66.00;52359.22;4936561;29;20207;-79
2023/12/15 04:02:06;;;;;;;8.50;4.73;;;;;;;-145.69;65.37;52381.00;4936546;29;20678;-79
2023/12/15 04:04:33;;;;;;;8.17;4.77;;;;;;;-145.69;65.13;52359.22;4935964;29;20203;-78
2023/12/15 04:07:01;;;;;;;9.13;4.47;;;;;;;-145.69;65.25;52365.16;4936329;29;20210;-79
2023/12/15 04:09:27;;;;;;;8.20;4.67;;;;;;;-145.69;65.56;52369.13;4935768;29;20635;-79
2023/12/15 04:11:53;;;;;;;9.43;5.13;;;;;;;-145.69;65.55;52381.00;4935808;29;20211;-80
2023/12/15 04:14:20;;;;;;;9.47;5.47;;;;;;;-145.69;65.81;52384.97;4936279;29;20200;-80
2023/12/15 04:16:46;;;;;;;8.67;5.07;;;;;;;-145.69;65.74;52408.75;4936228;29;20214;-79
2023/12/15 04:19:13;;;;;;;10.13;5.40;;;;;;;-145.69;66.06;52392.91;4935956;29;20219;-78
2023/12/15 04:21:40;;;;;;;8.77;5.10;;;;;;;-145.69;65.41;52386.97;4936099;29;20234;-80
2023/12/15 04:24:08;;;;;;;9.37;5.23;;;;;;;-145.69;65.64;52384.97;4919140;29;20241;-79
2023/12/15 04:26:34;;;;;;;8.33;4.70;;;;;;;-145.69;66.36;52369.13;4935863;29;20207;-81
2023/12/15 04:29:01;;;;;;;8.63;4.53;;;;;;;-145.69;66.42;52400.81;4936115;29;20215;-80
2023/12/15 04:31:28;;;;;;;11.00;5.43;;;;;;;-145.69;67.05;52392.91;4936043;29;20254;-80
2023/12/15 04:33:54;;;;;;;8.30;5.50;;;;;;;-145.69;67.09;52381.00;4935652;29;20242;-81
2023/12/15 04:36:21;;;;;;;7.33;4.20;;;;;;;-145.69;67.59;52363.19;4935754;29;20204;-80
2023/12/15 04:38:49;;;;;;;9.17;5.20;;;;;;;-145.69;67.47;52355.28;4935827;29;20206;-80
2023/12/15 04:41:21;;;;;;;8.27;4.67;;;;;;;-145.69;66.88;52384.97;4935879;29;20234;-80
2023/12/15 04:43:47;;;;;;;11.47;5.63;;;;;;;-145.69;66.88;52363.19;4935530;29;20254;-80
2023/12/15 04:46:22;;;;;;;12.27;5.50;;;;;;;-145.69;67.05;52377.06;4935739;29;20214;-80
2023/12/15 04:48:49;;;;;;;9.03;5.17;;;;;;;-145.69;67.16;52386.97;4934409;29;20575;-80
2023/12/15 04:51:15;;;;;;;8.97;4.77;;;;;;;-145.69;67.29;52384.97;4935614;29;20207;-80
2023/12/15 04:53:42;;;;;;;7.67;4.43;;;;;;;-145.69;67.51;52375.06;4935606;29;20215;-80
2023/12/15 04:56:09;;;;;;;8.20;4.30;;;;;;;-145.69;67.56;52371.13;4935908;29;20199;-81
2023/12/15 04:58:38;;;;;;;11.20;4.60;;;;;;;-145.69;67.87;52351.31;4935435;29;20203;-80
2023/12/15 05:01:05;;;;;;;11.87;5.03;;;;;;;-145.69;67.43;52396.84;4935539;29;20239;-80
2023/12/15 05:03:32;;;;;;;14.27;5.00;;;;;;;-145.69;67.61;52373.09;4934932;29;20655;-80
2023/12/15 05:05:59;;;;;;;9.03;4.73;;;;;;;-145.69;67.57;52390.91;4935310;29;20214;-80
2023/12/15 05:08:26;;;;;;;9.03;5.37;;;;;;;-145.69;66.86;52371.13;4935478;29;20242;-79
2023/12/15 05:10:52;;;;;;;11.40;6.17;;;;;;;-145.69;66.85;52388.94;4935707;29;20211;-79
2023/12/15 05:13:19;;;;;;;11.50;5.80;;;;;;;-145.69;66.26;52379.03;4935432;29;20608;-79
2023/12/15 05:15:47;;;;;;;13.00;6.00;;;;;;;-145.69;66.28;52373.09;4935273;29;20218;-79
2023/12/15 05:18:14;;;;;;;12.07;6.73;;;;;;;-145.69;65.83;52402.78;4934233;29;20211;-80
2023/12/15 05:20:41;;;;;;;11.67;6.57;;;;;;;-145.69;65.96;52384.97;4935266;29;20278;-79
2023/12/15 05:23:08;;;;;;;12.17;6.20;;;;;;;-145.69;66.66;52379.03;4939042;29;20288;-80
2023/12/15 05:25:35;;;;;;;11.13;5.87;;;;;;;-145.69;66.50;52359.22;4939180;29;20200;-79
2023/12/15 05:28:01;;;;;;;9.93;5.77;;;;;;;-145.69;66.69;52365.16;4938714;29;20207;-79
2023/12/15 05:30:27;;;;;;;12.27;5.97;;;;;;;-145.69;66.80;52408.75;4939353;29;20211;-81
2023/12/15 05:32:55;;;;;;;10.03;5.87;;;;;;;-145.69;67.10;52343.38;4939091;29;20217;-80
2023/12/15 05:35:22;;;;;;;15.30;6.33;;;;;;;-145.69;67.05;52388.94;4935946;29;20203;-81
2023/12/15 05:37:50;;;;;;;15.40;6.10;;;;;;;-145.69;67.25;52361.22;4939033;29;20226;-81
2023/12/15 05:40:17;;;;;;;13.03;6.60;;;;;;;-145.69;66.79;52381.00;4939018;29;20208;-79
2023/12/15 05:42:43;;;;;;;12.33;7.00;;;;;;;-145.69;67.15;52357.25;4938812;29;20208;-81
2023/12/15 05:45:11;;;;;;;10.50;6.00;;;;;;;-145.69;67.28;52369.13;4939192;29;20208;-80
2023/12/15 05:47:38;;;;;;;11.77;6.70;;;;;;;-145.69;67.43;52394.88;4939030;29;20203;-81
2023/12/15 05:50:07;;;;;;;10.90;6.70;;;;;;;-145.69;67.49;52388.94;4938138;29;20207;-80
2023/12/15 05:52:34;;;;;;;12.67;6.63;;;;;;;-145.69;67.42;52353.28;4938978;29;20207;-80
2023/12/15 05:55:01;;;;;;;11.83;7.10;;;;;;;-145.69;67.56;52384.97;4938653;29;20208;-80
2023/12/15 05:57:27;;;;;;;24.07;12.30;;;;;;;-145.69;67.22;52386.97;4938713;29;20250;-80
2023/12/15 05:59:56;;;;;;;24.13;11.43;;;;;;;-145.69;67.23;52392.91;4938571;29;20215;-80
2023/12/15 06:02:23;;;;;;;20.60;9.67;;;;;;;-145.69;67.11;52396.84;4938467;29;20238;-79
2023/12/15 06:04:49;;;;;;;14.23;7.63;;;;;;;-145.69;66.83;52373.09;4938408;29;20222;-79
2023/12/15 06:07:18;;;;;;;12.13;6.93;;;;;;;-145.69;66.86;52377.06;4938399;29;20207;-80
2023/12/15 06:09:44;;;;;;;17.53;7.63;;;;;;;-145.69;66.75;52365.16;4938401;29;20278;-80
2023/12/15 06:12:10;;;;;;;14.80;7.97;;;;;;;-145.69;67.17;52392.91;4938548;29;20206;-81
2023/12/15 06:14:38;;;;;;;14.83;7.80;;;;;;;-145.69;66.99;52375.06;4938432;29;20207;-81
2023/12/15 06:17:06;;;;;;;12.67;7.47;;;;;;;-145.69;67.07;52396.84;4938162;29;20362;-81
2023/12/15 06:19:32;;;;;;;17.70;7.20;;;;;;;-145.69;64.81;52377.06;4937932;29;20267;-80
2023/12/15 06:21:59;;;;;;;14.67;7.57;;;;;;;-145.69;66.03;52381.00;4937781;29;20262;-80
2023/12/15 06:24:26;;;;;;;13.50;7.33;;;;;;;-145.69;66.72;52381.00;4937668;29;20643;-79
2023/12/15 06:26:53;;;;;;;13.53;7.27;;;;;;;-145.69;66.84;52369.13;4938518;29;20203;-80
2023/12/15 06:29:19;;;;;;;12.73;7.37;;;;;;;-145.69;67.34;52404.78;4938188;29;20204;-79
2023/12/15 06:31:46;;;;;;;13.50;7.13;;;;;;;-145.69;67.11;52373.09;4938051;29;20666;-79
2023/12/15 06:34:12;;;;;;;16.53;8.50;;;;;;;-145.69;66.37;52428.53;4938080;29;20647;-80
2023/12/15 06:36:40;;;;;;;14.70;7.57;;;;;;;-145.69;66.80;52388.94;4937719;29;20204;-80
2023/12/15 06:39:06;;;;;;;15.43;7.53;;;;;;;-145.69;67.33;52402.78;4938051;29;20207;-80
2023/12/15 06:41:34;;;;;;;16.43;7.43;;;;;;;-145.69;66.80;52363.19;4938066;29;20242;-79
2023/12/15 06:44:02;;;;;;;11.10;7.13;;;;;;;-145.69;67.05;52416.66;4937976;29;20207;-80
2023/12/15 06:46:28;;;;;;;18.60;8.33;;;;;;;-145.69;67.14;52388.94;4937889;29;20294;-80
2023/12/15 06:48:55;;;;;;;14.43;7.03;;;;;;;-145.69;66.43;52363.19;4937717;29;20203;-81
2023/12/15 06:51:21;;;;;;;10.80;6.50;;;;;;;-145.69;66.42;52384.97;4937622;29;20206;-80
2023/12/15 06:53:48;;;;;;;17.03;7.47;;;;;;;-145.69;67.03;52373.09;4937832;29;20203;-79
2023/12/15 06:56:14;;;;;;;11.80;6.83;;;;;;;-145.69;67.12;52363.19;4937766;29;20215;-81
2023/12/15 06:58:42;;;;;;;16.57;7.47;;;;;;;-145.69;67.22;52369.13;4937525;29;20210;-80
2023/12/15 07:01:08;;;;;;;14.93;7.90;;;;;;;-145.69;67.90;52381.00;4937674;29;20234;-81
2023/12/15 07:03:35;;;;;;;15.93;7.80;;;;;;;-145.69;67.53;52410.72;4937362;29;20238;-81
2023/12/15 07:06:01;;;;;;;14.03;7.10;;;;;;;-145.69;67.90;52347.34;4937380;29;20619;-81
2023/12/15 07:08:28;;;;;;;10.37;6.27;;;;;;;-145.69;67.53;52373.09;4937554;29;20224;-79
2023/12/15 07:10:54;;;;;;;13.33;7.00;;;;;;;-145.69;67.94;52371.13;4937489;29;20211;-80
2023/12/15 07:13:21;;;;;;;14.53;7.93;;;;;;;-145.69;67.47;52388.94;4937484;29;20209;-80
2023/12/15 07:15:49;;;;;;;13.77;7.53;;;;;;;-145.69;67.29;52355.28;4936606;29;20207;-80
2023/12/15 07:18:16;;;;;;;16.20;8.43;;;;;;;-145.69;67.90;52369.13;4936863;29;20815;-80
2023/12/15 07:20:42;;;;;;;15.23;8.33;;;;;;;-145.69;67.87;52373.09;4936864;29;20878;-80
2023/12/15 07:23:08;;;;;;;16.10;8.07;;;;;;;-145.69;68.00;52367.16;4937252;29;20570;-80
2023/12/15 07:25:37;;;;;;;16.10;7.67;;;;;;;-145.69;68.64;52355.28;4936938;29;20208;-79
2023/12/15 07:28:04;;;;;;;21.00;8.57;;;;;;;-145.69;68.43;52381.00;4937024;29;20255;-79
2023/12/15 07:30:30;;;;;;;19.57;9.40;;;;;;;-145.69;67.55;52373.09;4937316;29;20544;-79
2023/12/15 07:32:58;;;;;;;17.07;7.90;;;;;;;-145.69;68.17;52388.94;4936663;29;20689;-79
2023/12/15 07:35:24;;;;;;;16.07;8.27;;;;;;;-145.69;68.45;52369.13;4936506;29;20231;-80
2023/12/15 07:37:51;;;;;;;15.17;7.93;;;;;;;-145.69;68.17;52406.75;4919816;29;20201;-79
2023/12/15 07:40:17;;;;;;;15.27;8.23;;;;;;;-145.69;68.13;52398.84;4917980;29;20279;-79
2023/12/15 07:42:44;;;;;;;20.47;8.07;;;;;;;-145.69;68.15;52381.00;4917554;29;20232;-78
2023/12/15 07:45:11;;;;;;;17.10;7.13;;;;;;;-145.69;67.80;52384.97;4917308;29;20675;-79
2023/12/15 07:47:38;;;;;;;14.30;7.77;;;;;;;-145.69;67.72;52345.38;4917933;29;20640;-79
2023/12/15 07:50:07;;;;;;;16.83;8.40;;;;;;;-145.69;67.41;52375.06;4934606;29;20567;-79
2023/12/15 07:52:34;;;;;;;19.27;8.50;;;;;;;-145.69;67.79;52377.06;4936583;29;20205;-79
2023/12/15 07:55:00;;;;;;;14.10;7.40;;;;;;;-145.69;68.23;52367.16;4936550;29;20207;-79
2023/12/15 07:57:27;;;;;;;14.70;7.57;;;;;;;-145.69;68.23;52398.84;4936810;29;20555;-78
2023/12/15 07:59:53;;;;;;;21.47;7.73;;;;;;;-145.69;67.87;52412.69;4935900;29;20207;-79
2023/12/15 08:02:21;;;;;;;15.30;7.20;;;;;;;-145.69;68.15;52388.94;4936489;29;20240;-79
2023/12/15 08:04:47;;;;;;;14.93;7.87;;;;;;;-145.69;67.80;52383.00;4936178;29;20196;-79
2023/12/15 08:07:15;;;;;;;16.13;7.63;;;;;;;-145.69;67.67;52386.97;4936411;29;20203;-79
2023/12/15 08:09:42;;;;;;;17.27;7.20;;;;;;;-145.69;67.63;52392.91;4936121;29;20307;-79
2023/12/15 08:12:09;;;;;;;17.67;7.53;;;;;;;-145.69;67.79;52386.97;4936349;29;20203;-79
2023/12/15 08:14:35;;;;;;;15.77;7.33;;;;;;;-145.69;68.17;52359.22;4936108;29;20207;-78
2023/12/15 08:17:02;;;;;;;16.63;7.37;;;;;;;-145.69;67.58;52390.91;4936109;29;20203;-79
2023/12/15 08:19:31;;;;;;;12.80;7.00;;;;;;;-145.69;68.02;52381.00;4934050;29;20206;-80
2023/12/15 08:21:57;;;;;;;14.20;6.93;;;;;;;-145.69;68.52;52396.84;4936256;29;20236;-81
2023/12/15 08:24:25;;;;;;;15.77;7.43;;;;;;;-145.69;68.21;52359.22;4936148;29;20214;-79
2023/12/15 08:26:53;;;;;;;11.43;7.03;;;;;;;-145.69;67.25;52367.16;4936159;29;20203;-80
2023/12/15 08:29:20;;;;;;;14.83;7.03;;;;;;;-145.69;67.99;52365.16;4935886;29;20207;-80
2023/12/15 08:31:46;;;;;;;12.93;6.80;;;;;;;-145.69;67.13;52365.16;4936208;29;20215;-79
2023/12/15 08:34:13;;;;;;;17.83;6.97;;;;;;;-145.69;67.13;52384.97;4935724;29;20195;-80
2023/12/15 08:36:40;;;;;;;15.80;7.40;;;;;;;-145.69;67.25;52375.06;4935839;29;20203;-80
2023/12/15 08:39:06;;;;;;;10.17;5.63;;;;;;;-145.69;67.31;52359.22;4935943;29;20251;-80
2023/12/15 08:41:34;;;;;;;13.23;6.20;;;;;;;-145.69;67.34;52327.53;4935331;29;20227;-80
2023/12/15 08:44:00;;;;;;;10.67;6.00;;;;;;;-145.69;67.19;52388.94;4935676;29;20214;-80
2023/12/15 08:46:27;;;;;;;14.83;6.47;;;;;;;-145.69;67.10;52369.13;4935860;29;20560;-80
2023/12/15 08:48:53;;;;;;;15.70;6.67;;;;;;;-145.69;67.38;52335.47;4935936;29;20195;-81
2023/12/15 08:51:20;;;;;;;15.73;7.40;;;;;;;-145.69;66.55;52357.25;4936030;29;20211;-81
2023/12/15 08:53:46;;;;;;;13.23;6.40;;;;;;;-145.69;66.63;52345.38;4935584;29;20664;-81
2023/12/15 08:56:12;;;;;;;14.87;6.90;;;;;;;-145.69;66.38;52402.78;4934866;29;20211;-80
2023/12/15 08:58:40;;;;;;;12.73;6.50;;;;;;;-145.69;64.74;52345.38;4935873;29;20211;-81
2023/12/15 09:01:07;;;;;;;11.33;6.40;;;;;;;-145.69;66.06;52373.09;4935726;29;20204;-81
2023/12/15 09:03:34;;;;;;;13.83;7.60;;;;;;;-145.69;66.41;52375.06;4935390;29;20227;-82
2023/12/15 09:06:00;;;;;;;18.33;9.27;;;;;;;-145.69;66.58;52365.16;4935743;29;20583;-81
2023/12/15 09:08:27;;;;;;;14.97;7.50;;;;;;;-145.69;67.08;52386.97;4935594;29;20239;-80
2023/12/15 09:10:53;;;;;;;13.60;7.50;;;;;;;-145.69;66.40;52349.31;4935639;29;20210;-80
2023/12/15 09:13:20;;;;;;;13.10;7.03;;;;;;;-145.69;66.48;52369.13;4935754;29;20203;-79
2023/12/15 09:15:49;;;;;;;15.83;7.57;;;;;;;-145.69;65.83;52355.28;4935657;29;20829;-79
2023/12/15 09:18:15;;;;;;;14.53;8.20;;;;;;;-145.69;67.25;52351.31;4933349;29;20549;-80
2023/12/15 09:20:42;;;;;;;11.43;6.57;;;;;;;-145.69;64.03;52371.13;4934999;29;20254;-81
2023/12/15 09:23:10;;;;;;;11.03;6.33;;;;;;;-145.69;63.93;52373.09;4932741;29;20239;-81
2023/12/15 09:25:37;;;;;;;11.80;7.00;;;;;;;-145.69;64.17;52339.44;4935491;29;20222;-80
2023/12/15 09:28:05;;;;;;;12.07;7.17;;;;;;;-145.69;64.96;52375.06;4918505;29;20209;-81
2023/12/15 09:30:31;;;;;;;9.90;6.30;;;;;;;-145.69;64.37;52365.16;4935581;29;20218;-79
2023/12/15 09:32:59;;;;;;;9.73;5.80;;;;;;;-145.69;64.50;52375.06;4935112;29;20204;-81
2023/12/15 09:35:26;;;;;;;8.97;5.50;;;;;;;-145.69;64.85;52355.28;4935450;29;20756;-80
2023/12/15 09:37:52;;;;;;;9.30;5.47;;;;;;;-145.69;65.36;52345.38;4935171;29;20204;-80
2023/12/15 09:40:23;;;;;;;7.43;4.83;;;;;;;-145.69;64.95;52329.53;4932063;29;20207;-81
2023/12/15 09:42:50;;;;;;;5.23;3.80;;;;;;;-145.69;64.44;52384.97;4934787;29;20234;-81
2023/12/15 09:45:16;;;;;;;7.20;4.33;;;;;;;-145.69;63.64;52375.06;4935337;29;20211;-80
2023/12/15 09:47:46;;;;;;;7.30;4.00;;;;;;;-145.69;63.69;52373.09;4935126;29;20211;-81
2023/12/15 09:50:17;;;;;;;7.50;4.20;;;;;;;-145.69;64.09;52375.06;4920410;29;20595;-81
2023/12/15 09:52:44;;;;;;;7.60;3.97;;;;;;;-145.69;63.34;52335.47;4935288;29;20211;-80
2023/12/15 09:55:11;;;;;;;6.40;4.30;;;;;;;-145.69;64.16;52309.72;4935456;29;20208;-80
2023/12/15 09:57:38;;;;;;;8.37;4.03;;;;;;;-145.69;63.83;52361.22;4935084;29;20211;-80
2023/12/15 10:00:06;;;;;;;7.77;4.30;;;;;;;-145.69;61.46;52345.38;4935036;29;20215;-80
2023/12/15 10:02:34;;;;;;;7.10;4.53;;;;;;;-145.69;61.35;52375.06;4935222;29;20287;-79
2023/12/15 10:05:01;;;;;;;8.37;5.00;;;;;;;-145.69;61.75;52373.09;4934500;29;20207;-69
2023/12/15 10:07:29;;;;;;;7.90;5.00;;;;;;;-145.69;61.82;52345.38;4937451;29;20199;-79
2023/12/15 10:09:56;;;;;;;7.43;4.43;;;;;;;-145.69;61.21;52329.53;4938009;29;20242;-79
2023/12/15 10:12:22;;;;;;;4.50;3.17;;;;;;;-145.69;60.94;52369.13;4938356;29;20208;-79
2023/12/15 10:14:49;;;;;;;9.07;4.80;;;;;;;-145.69;60.68;52327.53;4938404;29;20208;-80
2023/12/15 10:17:16;;;;;;;6.20;4.17;;;;;;;-145.69;60.70;52357.25;4938326;29;20208;-80
2023/12/15 10:19:42;;;;;;;6.93;4.37;;;;;;;-145.69;60.16;52377.06;4937691;29;20547;-81
2023/12/15 10:22:09;;;;;;;7.37;4.40;;;;;;;-145.69;60.34;52329.53;4938438;29;20227;-80
2023/12/15 10:24:37;;;;;;;7.30;4.10;;;;;;;-145.69;60.93;52333.47;4938279;29;20207;-80
2023/12/15 10:27:03;;;;;;;7.33;3.90;;;;;;;-145.69;60.37;52333.47;4938515;29;20292;-81
2023/12/15 10:29:30;;;;;;;6.53;3.70;;;;;;;-145.69;60.69;52333.47;4938099;29;20674;-81
2023/12/15 10:31:57;;;;;;;6.00;3.70;;;;;;;-145.69;60.18;52323.59;4938202;29;20203;-81
2023/12/15 10:34:25;;;;;;;6.67;3.60;;;;;;;-145.69;59.83;52353.28;4938235;29;20199;-81
2023/12/15 10:36:52;;;;;;;3.97;2.90;;;;;;;-145.69;59.74;52349.31;4938069;29;20228;-81
2023/12/15 10:39:20;;;;;;;7.97;4.20;;;;;;;-145.69;59.33;52325.56;4938169;29;20571;-80
2023/12/15 10:41:48;;;;;;;7.07;3.90;;;;;;;-145.69;59.28;52361.22;4937885;29;20215;-80
2023/12/15 10:44:16;;;;;;;4.93;3.23;;;;;;;-145.69;59.45;52339.44;4938037;29;20215;-80
2023/12/15 10:46:44;;;;;;;3.77;3.10;;;;;;;-145.69;59.22;52349.31;4937915;29;20682;-80
2023/12/15 10:49:11;;;;;;;5.70;3.67;;;;;;;-145.69;59.43;52337.44;4926576;29;20285;-80
2023/12/15 10:51:38;;;;;;;5.13;3.63;;;;;;;-145.69;59.87;52353.28;4918988;29;20207;-80
2023/12/15 10:54:06;;;;;;;4.43;3.50;;;;;;;-145.69;59.83;52309.72;4918773;29;20216;-80
2023/12/15 10:56:32;;;;;;;7.03;3.20;;;;;;;-145.69;59.41;52325.56;4919075;29;20304;-80
2023/12/15 10:59:00;;;;;;;5.63;3.40;;;;;;;-145.69;60.09;52377.06;4918833;29;20215;-80
2023/12/15 11:01:28;;;;;;;5.37;3.73;;;;;;;-145.69;60.01;52323.59;4918896;29;20702;-80
2023/12/15 11:03:55;;;;;;;6.33;3.67;;;;;;;-145.69;59.49;52341.41;4934191;29;20235;-80
2023/12/15 11:06:30;;;;;;;8.67;4.17;;;;;;;-145.69;59.29;52345.38;4931825;29;20236;-80
2023/12/15 11:09:00;;;;;;;7.10;4.13;;;;;;;-145.69;59.46;52341.41;4919434;29;20232;-77
2023/12/15 11:11:29;;;;;;;7.90;4.10;;;;;;;-145.69;59.11;52321.59;4932302;29;20207;-78